Maya — JD2830 — position and weather

sailwx.info

Track history (hours):
 
Tides and Currents Weather Stations Pressure Air Temp Water Temp Dewpoint Dewpoint Depression Visibility Wind Speed Wind Dir Waves Ship Positions

Maya

Last reported at 2018-Jun-24 23:55 UTC. Time now 2018-Jun-25 00:14 UTC.
Position N 34°39' E 135°15'.

Length 90 m; draft 3.6 m.

Type: Cargo ship. MMSI: 431000776.

Date/timePositionNaut miles runAvg speedWind from/ knotsBaromVisibWave heightAir tempDewpointWater temp
2018-Jun-24 23:55N 34°39' E 135°15'0 0.0
2018-Jun-24 23:25N 34°39' E 135°15'0 0.8
2018-Jun-24 22:59N 34°39' E 135°15'2 4.6
2018-Jun-24 22:30N 34°37' E 135°16'0 0.3
2018-Jun-24 22:00N 34°37' E 135°16'3 6.2
2018-Jun-24 21:30N 34°40' E 135°15'2 3.6
2018-Jun-24 20:54N 34°41' E 135°12'0 0.0
2018-Jun-24 20:30N 34°41' E 135°12'0 0.0
2018-Jun-24 20:00N 34°41' E 135°12'0 0.0
2018-Jun-24 19:30N 34°41' E 135°12'0 0.0
2018-Jun-24 18:54N 34°41' E 135°12'0 0.0
2018-Jun-24 18:30N 34°41' E 135°12'0 0.0
2018-Jun-24 18:00N 34°41' E 135°12'0 0.0
2018-Jun-24 17:24N 34°41' E 135°12'0 0.0
2018-Jun-24 17:00N 34°41' E 135°12'0 0.0
2018-Jun-24 16:30N 34°41' E 135°12'0 0.0
2018-Jun-24 16:00N 34°41' E 135°12'0 0.0
2018-Jun-24 15:30N 34°41' E 135°12'0 0.0
2018-Jun-24 15:00N 34°41' E 135°12'0 0.0
2018-Jun-24 14:30N 34°41' E 135°12'0 0.0
2018-Jun-24 14:00N 34°41' E 135°12'0 0.0
2018-Jun-24 13:30N 34°41' E 135°12'0 0.0
2018-Jun-24 12:57N 34°41' E 135°12'0 0.0
2018-Jun-24 12:24N 34°41' E 135°12'0 0.0
2018-Jun-24 12:00N 34°41' E 135°12'0 0.0
2018-Jun-24 11:24N 34°41' E 135°12'0 0.0
2018-Jun-24 11:00N 34°41' E 135°12'0 0.0
2018-Jun-24 10:30N 34°41' E 135°12'0 0.0
2018-Jun-24 10:00N 34°41' E 135°12'0 0.0
2018-Jun-24 09:30N 34°41' E 135°12'0 0.0
2018-Jun-24 09:00N 34°41' E 135°12'0 0.0
2018-Jun-24 08:30N 34°41' E 135°12'0 0.0
2018-Jun-24 08:00N 34°41' E 135°12'0 0.0
2018-Jun-24 07:30N 34°41' E 135°12'0 0.0
2018-Jun-24 07:00N 34°41' E 135°12'0 0.0
2018-Jun-24 06:24N 34°41' E 135°12'0 0.0
2018-Jun-24 06:00N 34°41' E 135°12'0 0.0
2018-Jun-24 05:24N 34°41' E 135°12'0 0.0
2018-Jun-24 05:00N 34°41' E 135°12'0 0.0
2018-Jun-24 04:30N 34°41' E 135°12'0 0.0
2018-Jun-24 04:00N 34°41' E 135°12'0 0.0
2018-Jun-24 03:24N 34°41' E 135°12'0 0.0
2018-Jun-24 03:00N 34°41' E 135°12'0 0.0
2018-Jun-24 02:30N 34°41' E 135°12'0 0.0
2018-Jun-24 01:54N 34°41' E 135°12'0 0.0
2018-Jun-24 01:30N 34°41' E 135°12'0 0.0
2018-Jun-24 01:00N 34°41' E 135°12'0 0.0
2018-Jun-24 00:30N 34°41' E 135°12'0 0.0
2018-Jun-24 00:00N 34°41' E 135°12'0 0.0
2018-Jun-23 23:24N 34°41' E 135°12'0 0.0
2018-Jun-23 23:00N 34°41' E 135°12'0 0.0
2018-Jun-23 22:30N 34°41' E 135°12'3 5.7
2018-Jun-23 22:00N 34°40' E 135°15'3 5.4
2018-Jun-23 21:30N 34°37' E 135°16'0 0.0
2018-Jun-23 21:00N 34°37' E 135°16'0 0.0
2018-Jun-23 20:30N 34°37' E 135°16'0 0.0
2018-Jun-23 20:00N 34°37' E 135°16'0 0.0
2018-Jun-23 19:30N 34°37' E 135°16'0 0.0
2018-Jun-23 19:00N 34°37' E 135°16'0 0.0
2018-Jun-23 18:30N 34°37' E 135°16'0 0.0
2018-Jun-23 18:00N 34°37' E 135°16'0 0.0
2018-Jun-23 17:30N 34°37' E 135°16'0 0.0
2018-Jun-23 17:00N 34°37' E 135°16'0 0.0
2018-Jun-23 16:30N 34°37' E 135°16'0 0.0
2018-Jun-23 16:00N 34°37' E 135°16'0 0.0
2018-Jun-23 15:31N 34°37' E 135°16'0 0.0
2018-Jun-23 15:00N 34°37' E 135°16'0 0.0
2018-Jun-23 14:30N 34°37' E 135°16'0 0.0
2018-Jun-23 14:00N 34°37' E 135°16'4 7.7
2018-Jun-23 13:30N 34°36' E 135°11'511.0
2018-Jun-23 13:00N 34°35' E 135°05'611.4
2018-Jun-23 12:30N 34°37' E 134°58'510.9
2018-Jun-23 12:00N 34°34' E 134°52'710.2
2018-Jun-23 11:19N 34°32' E 134°45'310.5
2018-Jun-23 11:00N 34°31' E 134°41'510.8
2018-Jun-23 10:31N 34°29' E 134°35'510.7
2018-Jun-23 10:00N 34°26' E 134°29'510.9
2018-Jun-23 09:30N 34°24' E 134°23'610.6
2018-Jun-23 08:59N 34°24' E 134°16'3 0.2
2018-Jun-22 18:55N 34°23' E 134°12'512.2
2018-Jun-22 18:31N 34°25' E 134°18'611.6
2018-Jun-22 18:01N 34°27' E 134°25'611.4
2018-Jun-22 17:31N 34°29' E 134°31'611.2
2018-Jun-22 17:01N 34°31' E 134°37'611.6
2018-Jun-22 16:30N 34°33' E 134°44'612.2
2018-Jun-22 16:00N 34°35' E 134°51'611.1
2018-Jun-22 15:30N 34°37' E 134°57'5 9.1
2018-Jun-22 15:01N 34°37' E 135°02'5 9.5
2018-Jun-22 14:30N 34°37' E 135°08'510.7
2018-Jun-22 14:00N 34°38' E 135°15'1 2.6
2018-Jun-22 13:26N 34°39' E 135°15'0 0.0
2018-Jun-22 12:50N 34°39' E 135°15'0 0.0
2018-Jun-22 12:29N 34°39' E 135°15'0 0.0
2018-Jun-22 11:56N 34°39' E 135°15'0 0.0
2018-Jun-22 11:30N 34°39' E 135°15'3 6.5
2018-Jun-22 11:01N 34°36' E 135°15'611.0
2018-Jun-22 10:31N 34°31' E 135°12'612.7
2018-Jun-22 10:01N 34°26' E 135°09'713.8
2018-Jun-22 09:31N 34°19' E 135°05'510.7
2018-Jun-22 09:00N 34°14' E 135°05'3 6.3
2018-Jun-22 08:31N 34°12' E 135°09'0 0.0
2018-Jun-22 08:01N 34°12' E 135°09'0 0.5
2018-Jun-22 07:30N 34°13' E 135°08'611.1
2018-Jun-22 07:01N 34°11' E 135°02'713.2
2018-Jun-22 06:30N 34°08' E 134°55'713.1
2018-Jun-22 06:00N 34°05' E 134°48'712.7
2018-Jun-22 05:29N 34°02' E 134°41'6 3.5
2018-Jun-22 03:51N 34°06' E 134°46'513.5
2018-Jun-22 03:30N 34°09' E 134°50'713.7
2018-Jun-22 03:00N 34°13' E 134°56'713.7
2018-Jun-22 02:30N 34°20' E 134°59'713.7
2018-Jun-22 02:00N 34°25' E 135°04'713.8
2018-Jun-22 01:30N 34°30' E 135°11'612.6
2018-Jun-22 01:00N 34°35' E 135°14'4 7.7
2018-Jun-22 00:30N 34°39' E 135°15'0 0.0
2018-Jun-21 23:52N 34°39' E 135°15'0 0.0
2018-Jun-21 23:28N 34°39' E 135°15'0 0.2
2018-Jun-21 23:00N 34°39' E 135°15'2 4.6
2018-Jun-21 22:30N 34°37' E 135°16'2 4.4
2018-Jun-21 22:00N 34°35' E 135°14'1 1.1
2018-Jun-21 21:30N 34°35' E 135°13'4 7.8
2018-Jun-21 21:00N 34°35' E 135°09'510.9
2018-Jun-21 20:30N 34°36' E 135°02'510.0
2018-Jun-21 20:00N 34°36' E 134°56'510.1
2018-Jun-21 19:30N 34°33' E 134°51'510.3
2018-Jun-21 18:59N 34°31' E 134°45'511.1
2018-Jun-21 18:30N 34°29' E 134°39'611.4
2018-Jun-21 18:00N 34°27' E 134°32'611.5
2018-Jun-21 17:30N 34°25' E 134°26'611.3
2018-Jun-21 17:00N 34°24' E 134°19'610.7
2018-Jun-21 16:28N 34°24' E 134°12'12 0.4
2018-Jun-20 12:11N 34°35' E 134°18'210.5
2018-Jun-20 12:00N 34°36' E 134°20'611.0
2018-Jun-20 11:27N 34°37' E 134°27'510.9
2018-Jun-20 11:00N 34°37' E 134°33'510.5
2018-Jun-20 10:30N 34°38' E 134°40'510.5
2018-Jun-20 10:00N 34°38' E 134°46'510.0
2018-Jun-20 09:30N 34°38' E 134°52'5 9.5
2018-Jun-20 08:57N 34°37' E 134°59'4 9.5
2018-Jun-20 08:30N 34°36' E 135°04'510.1
2018-Jun-20 08:00N 34°37' E 135°10'510.5
2018-Jun-20 07:30N 34°38' E 135°16'1 2.0
2018-Jun-20 06:49N 34°39' E 135°15'0 0.0
2018-Jun-20 06:19N 34°39' E 135°15'0 0.0
2018-Jun-20 05:55N 34°39' E 135°15'0 0.0
2018-Jun-20 05:25N 34°39' E 135°15'0 0.0
2018-Jun-20 04:55N 34°39' E 135°15'0 0.0
2018-Jun-20 04:25N 34°39' E 135°15'1 1.5
2018-Jun-20 04:00N 34°39' E 135°15'3 6.9
2018-Jun-20 03:30N 34°36' E 135°13'5 9.2
2018-Jun-20 03:00N 34°35' E 135°07'611.3
2018-Jun-20 02:30N 34°37' E 135°01'610.8
2018-Jun-20 01:58N 34°35' E 134°54'711.2
2018-Jun-20 01:23N 34°32' E 134°47'511.3
2018-Jun-20 00:59N 34°30' E 134°42'511.3
2018-Jun-20 00:30N 34°28' E 134°36'612.6
2018-Jun-20 00:01N 34°26' E 134°29'612.5
2018-Jun-19 23:30N 34°24' E 134°22'2 0.1
2018-Jun-18 06:55N 34°25' E 134°19'512.0
2018-Jun-18 06:30N 34°27' E 134°25'612.4
2018-Jun-18 05:59N 34°29' E 134°32'612.6
2018-Jun-18 05:30N 34°31' E 134°39'713.2
2018-Jun-18 05:01N 34°33' E 134°46'813.3
2018-Jun-18 04:26N 34°36' E 134°55'612.9
2018-Jun-18 04:00N 34°37' E 135°02'612.7
2018-Jun-18 03:30N 34°36' E 135°09'611.8
2018-Jun-18 03:00N 34°39' E 135°16'1 2.1
2018-Jun-18 02:26N 34°39' E 135°14'0 0.0
2018-Jun-18 01:56N 34°39' E 135°14'0 0.0
2018-Jun-18 01:26N 34°39' E 135°14'0 0.0
2018-Jun-18 00:56N 34°39' E 135°14'0 0.0
2018-Jun-18 00:29N 34°39' E 135°14'0 0.0
2018-Jun-17 23:56N 34°39' E 135°14'0 0.0
2018-Jun-17 23:26N 34°39' E 135°14'0 0.0
2018-Jun-17 22:58N 34°39' E 135°14'1 3.1
2018-Jun-17 22:30N 34°41' E 135°14'1 2.0
2018-Jun-17 21:59N 34°41' E 135°13'0 0.0
2018-Jun-17 21:30N 34°41' E 135°13'0 0.0
2018-Jun-17 20:48N 34°41' E 135°13'0 0.0
2018-Jun-17 20:30N 34°41' E 135°13'0 0.0
2018-Jun-17 20:00N 34°41' E 135°13'0 0.0
2018-Jun-17 19:30N 34°41' E 135°13'0 0.0
2018-Jun-17 18:54N 34°41' E 135°13'0 0.0
2018-Jun-17 18:30N 34°41' E 135°13'0 0.0
2018-Jun-17 18:00N 34°41' E 135°13'0 0.0
2018-Jun-17 17:30N 34°41' E 135°13'0 0.0
2018-Jun-17 17:00N 34°41' E 135°13'0 0.0
2018-Jun-17 16:29N 34°41' E 135°13'0 0.0
2018-Jun-17 15:54N 34°41' E 135°13'0 0.0
2018-Jun-17 15:29N 34°41' E 135°13'0 0.0
2018-Jun-17 15:00N 34°41' E 135°13'0 0.0
2018-Jun-17 14:29N 34°41' E 135°13'0 0.0
2018-Jun-17 13:59N 34°41' E 135°13'0 0.0
2018-Jun-17 13:29N 34°41' E 135°13'0 0.0
2018-Jun-17 12:59N 34°41' E 135°13'0 0.0
2018-Jun-17 12:30N 34°41' E 135°13'0 0.0
2018-Jun-17 12:00N 34°41' E 135°13'0 0.0
2018-Jun-17 11:30N 34°41' E 135°13'0 0.0
2018-Jun-17 10:59N 34°41' E 135°13'0 0.0
2018-Jun-17 10:23N 34°41' E 135°13'0 0.0
2018-Jun-17 09:54N 34°41' E 135°13'0 0.0
2018-Jun-17 09:30N 34°41' E 135°13'0 0.0
2018-Jun-17 08:53N 34°41' E 135°13'0 0.0
2018-Jun-17 08:23N 34°41' E 135°13'0 0.0
2018-Jun-17 07:47N 34°41' E 135°13'0 0.0
2018-Jun-17 07:29N 34°41' E 135°13'0 0.0
2018-Jun-17 06:59N 34°41' E 135°13'0 0.0
2018-Jun-17 06:05N 34°41' E 135°13'0 0.0
2018-Jun-17 05:47N 34°41' E 135°13'0 0.0
2018-Jun-17 05:24N 34°41' E 135°13'0 0.0
2018-Jun-17 04:59N 34°41' E 135°13'0 0.0
2018-Jun-17 04:23N 34°41' E 135°13'0 0.0
2018-Jun-17 03:59N 34°41' E 135°13'0 0.0
2018-Jun-17 03:29N 34°41' E 135°13'0 0.0
2018-Jun-17 02:53N 34°41' E 135°13'0 0.0
2018-Jun-17 02:29N 34°41' E 135°13'0 0.0
2018-Jun-17 01:59N 34°41' E 135°13'0 0.0
2018-Jun-17 01:23N 34°41' E 135°13'0 0.0
2018-Jun-17 00:59N 34°41' E 135°13'0 0.0
2018-Jun-17 00:29N 34°41' E 135°13'0 0.3
2018-Jun-17 00:00N 34°41' E 135°13'4 7.5
2018-Jun-16 23:30N 34°38' E 135°15'611.5
2018-Jun-16 23:00N 34°36' E 135°09'611.4
2018-Jun-16 22:30N 34°36' E 135°02'611.1
2018-Jun-16 21:59N 34°35' E 134°55'712.4
2018-Jun-16 21:26N 34°32' E 134°48'512.3
2018-Jun-16 21:00N 34°30' E 134°42'611.6
2018-Jun-16 20:30N 34°28' E 134°35'611.5
2018-Jun-16 20:00N 34°26' E 134°29'611.6
2018-Jun-16 19:30N 34°24' E 134°22'4 0.1
2018-Jun-15 16:22N 34°25' E 134°17'512.5
2018-Jun-15 15:59N 34°26' E 134°23'613.0
2018-Jun-15 15:30N 34°28' E 134°30'713.2
2018-Jun-15 15:00N 34°31' E 134°37'713.8
2018-Jun-15 14:31N 34°33' E 134°45'815.3
2018-Jun-15 13:58N 34°36' E 134°55'714.5
2018-Jun-15 13:30N 34°37' E 135°03'713.4
2018-Jun-15 13:00N 34°37' E 135°11'4 8.0
2018-Jun-15 12:31N 34°39' E 135°15'0 0.3
2018-Jun-15 11:49N 34°39' E 135°15'0 0.0
2018-Jun-15 11:13N 34°39' E 135°15'0 0.0
2018-Jun-15 10:49N 34°39' E 135°15'0 0.0
2018-Jun-15 10:25N 34°39' E 135°15'0 0.0
2018-Jun-15 10:00N 34°39' E 135°15'1 2.6
2018-Jun-15 09:30N 34°39' E 135°16'3 6.5
2018-Jun-15 09:00N 34°36' E 135°15'0 0.7
2018-Jun-15 08:31N 34°36' E 135°15'0 0.9
2018-Jun-15 08:00N 34°36' E 135°14'3 6.4
2018-Jun-15 07:30N 34°35' E 135°11'713.2
2018-Jun-15 07:00N 34°36' E 135°03'815.2
2018-Jun-15 06:31N 34°35' E 134°54'814.5
2018-Jun-15 05:57N 34°31' E 134°45'613.9
2018-Jun-15 05:30N 34°29' E 134°38'713.7
2018-Jun-15 05:01N 34°27' E 134°30'714.0
2018-Jun-15 04:30N 34°24' E 134°22'  
Track history (hours):
 
Tides and Currents Weather Stations Pressure Air Temp Water Temp Dewpoint Dewpoint Depression Visibility Wind Speed Wind Dir Waves Ship Positions

Maya

Last reported at 2018-Jun-24 23:55 UTC. Time now 2018-Jun-25 00:14 UTC.
Position N 34°39' E 135°15'.

Length 90 m; draft 3.6 m.

Type: Cargo ship. MMSI: 431000776.

Date/timePositionNaut miles runAvg speedWind from/ knotsBaromVisibWave heightAir tempDewpointWater temp
2018-Jun-24 23:55N 34°39' E 135°15'0 0.0
2018-Jun-24 23:25N 34°39' E 135°15'0 0.8
2018-Jun-24 22:59N 34°39' E 135°15'2 4.6
2018-Jun-24 22:30N 34°37' E 135°16'0 0.3
2018-Jun-24 22:00N 34°37' E 135°16'3 6.2
2018-Jun-24 21:30N 34°40' E 135°15'2 3.6
2018-Jun-24 20:54N 34°41' E 135°12'0 0.0
2018-Jun-24 20:30N 34°41' E 135°12'0 0.0
2018-Jun-24 20:00N 34°41' E 135°12'0 0.0
2018-Jun-24 19:30N 34°41' E 135°12'0 0.0
2018-Jun-24 18:54N 34°41' E 135°12'0 0.0
2018-Jun-24 18:30N 34°41' E 135°12'0 0.0
2018-Jun-24 18:00N 34°41' E 135°12'0 0.0
2018-Jun-24 17:24N 34°41' E 135°12'0 0.0
2018-Jun-24 17:00N 34°41' E 135°12'0 0.0
2018-Jun-24 16:30N 34°41' E 135°12'0 0.0
2018-Jun-24 16:00N 34°41' E 135°12'0 0.0
2018-Jun-24 15:30N 34°41' E 135°12'0 0.0
2018-Jun-24 15:00N 34°41' E 135°12'0 0.0
2018-Jun-24 14:30N 34°41' E 135°12'0 0.0
2018-Jun-24 14:00N 34°41' E 135°12'0 0.0
2018-Jun-24 13:30N 34°41' E 135°12'0 0.0
2018-Jun-24 12:57N 34°41' E 135°12'0 0.0
2018-Jun-24 12:24N 34°41' E 135°12'0 0.0
2018-Jun-24 12:00N 34°41' E 135°12'0 0.0
2018-Jun-24 11:24N 34°41' E 135°12'0 0.0
2018-Jun-24 11:00N 34°41' E 135°12'0 0.0
2018-Jun-24 10:30N 34°41' E 135°12'0 0.0
2018-Jun-24 10:00N 34°41' E 135°12'0 0.0
2018-Jun-24 09:30N 34°41' E 135°12'0 0.0
2018-Jun-24 09:00N 34°41' E 135°12'0 0.0
2018-Jun-24 08:30N 34°41' E 135°12'0 0.0
2018-Jun-24 08:00N 34°41' E 135°12'0 0.0
2018-Jun-24 07:30N 34°41' E 135°12'0 0.0
2018-Jun-24 07:00N 34°41' E 135°12'0 0.0
2018-Jun-24 06:24N 34°41' E 135°12'0 0.0
2018-Jun-24 06:00N 34°41' E 135°12'0 0.0
2018-Jun-24 05:24N 34°41' E 135°12'0 0.0
2018-Jun-24 05:00N 34°41' E 135°12'0 0.0
2018-Jun-24 04:30N 34°41' E 135°12'0 0.0
2018-Jun-24 04:00N 34°41' E 135°12'0 0.0
2018-Jun-24 03:24N 34°41' E 135°12'0 0.0
2018-Jun-24 03:00N 34°41' E 135°12'0 0.0
2018-Jun-24 02:30N 34°41' E 135°12'0 0.0
2018-Jun-24 01:54N 34°41' E 135°12'0 0.0
2018-Jun-24 01:30N 34°41' E 135°12'0 0.0
2018-Jun-24 01:00N 34°41' E 135°12'0 0.0
2018-Jun-24 00:30N 34°41' E 135°12'0 0.0
2018-Jun-24 00:00N 34°41' E 135°12'0 0.0
2018-Jun-23 23:24N 34°41' E 135°12'0 0.0
2018-Jun-23 23:00N 34°41' E 135°12'0 0.0
2018-Jun-23 22:30N 34°41' E 135°12'3 5.7
2018-Jun-23 22:00N 34°40' E 135°15'3 5.4
2018-Jun-23 21:30N 34°37' E 135°16'0 0.0
2018-Jun-23 21:00N 34°37' E 135°16'0 0.0
2018-Jun-23 20:30N 34°37' E 135°16'0 0.0
2018-Jun-23 20:00N 34°37' E 135°16'0 0.0
2018-Jun-23 19:30N 34°37' E 135°16'0 0.0
2018-Jun-23 19:00N 34°37' E 135°16'0 0.0
2018-Jun-23 18:30N 34°37' E 135°16'0 0.0
2018-Jun-23 18:00N 34°37' E 135°16'0 0.0
2018-Jun-23 17:30N 34°37' E 135°16'0 0.0
2018-Jun-23 17:00N 34°37' E 135°16'0 0.0
2018-Jun-23 16:30N 34°37' E 135°16'0 0.0
2018-Jun-23 16:00N 34°37' E 135°16'0 0.0
2018-Jun-23 15:31N 34°37' E 135°16'0 0.0
2018-Jun-23 15:00N 34°37' E 135°16'0 0.0
2018-Jun-23 14:30N 34°37' E 135°16'0 0.0
2018-Jun-23 14:00N 34°37' E 135°16'4 7.7
2018-Jun-23 13:30N 34°36' E 135°11'511.0
2018-Jun-23 13:00N 34°35' E 135°05'611.4
2018-Jun-23 12:30N 34°37' E 134°58'510.9
2018-Jun-23 12:00N 34°34' E 134°52'710.2
2018-Jun-23 11:19N 34°32' E 134°45'310.5
2018-Jun-23 11:00N 34°31' E 134°41'510.8
2018-Jun-23 10:31N 34°29' E 134°35'510.7
2018-Jun-23 10:00N 34°26' E 134°29'510.9
2018-Jun-23 09:30N 34°24' E 134°23'610.6
2018-Jun-23 08:59N 34°24' E 134°16'3 0.2
2018-Jun-22 18:55N 34°23' E 134°12'512.2
2018-Jun-22 18:31N 34°25' E 134°18'611.6
2018-Jun-22 18:01N 34°27' E 134°25'611.4
2018-Jun-22 17:31N 34°29' E 134°31'611.2
2018-Jun-22 17:01N 34°31' E 134°37'611.6
2018-Jun-22 16:30N 34°33' E 134°44'612.2
2018-Jun-22 16:00N 34°35' E 134°51'611.1
2018-Jun-22 15:30N 34°37' E 134°57'5 9.1
2018-Jun-22 15:01N 34°37' E 135°02'5 9.5
2018-Jun-22 14:30N 34°37' E 135°08'510.7
2018-Jun-22 14:00N 34°38' E 135°15'1 2.6
2018-Jun-22 13:26N 34°39' E 135°15'0 0.0
2018-Jun-22 12:50N 34°39' E 135°15'0 0.0
2018-Jun-22 12:29N 34°39' E 135°15'0 0.0
2018-Jun-22 11:56N 34°39' E 135°15'0 0.0
2018-Jun-22 11:30N 34°39' E 135°15'3 6.5
2018-Jun-22 11:01N 34°36' E 135°15'611.0
2018-Jun-22 10:31N 34°31' E 135°12'612.7
2018-Jun-22 10:01N 34°26' E 135°09'713.8
2018-Jun-22 09:31N 34°19' E 135°05'510.7
2018-Jun-22 09:00N 34°14' E 135°05'3 6.3
2018-Jun-22 08:31N 34°12' E 135°09'0 0.0
2018-Jun-22 08:01N 34°12' E 135°09'0 0.5
2018-Jun-22 07:30N 34°13' E 135°08'611.1
2018-Jun-22 07:01N 34°11' E 135°02'713.2
2018-Jun-22 06:30N 34°08' E 134°55'713.1
2018-Jun-22 06:00N 34°05' E 134°48'712.7
2018-Jun-22 05:29N 34°02' E 134°41'6 3.5
2018-Jun-22 03:51N 34°06' E 134°46'513.5
2018-Jun-22 03:30N 34°09' E 134°50'713.7
2018-Jun-22 03:00N 34°13' E 134°56'713.7
2018-Jun-22 02:30N 34°20' E 134°59'713.7
2018-Jun-22 02:00N 34°25' E 135°04'713.8
2018-Jun-22 01:30N 34°30' E 135°11'612.6
2018-Jun-22 01:00N 34°35' E 135°14'4 7.7
2018-Jun-22 00:30N 34°39' E 135°15'0 0.0
2018-Jun-21 23:52N 34°39' E 135°15'0 0.0
2018-Jun-21 23:28N 34°39' E 135°15'0 0.2
2018-Jun-21 23:00N 34°39' E 135°15'2 4.6
2018-Jun-21 22:30N 34°37' E 135°16'2 4.4
2018-Jun-21 22:00N 34°35' E 135°14'1 1.1
2018-Jun-21 21:30N 34°35' E 135°13'4 7.8
2018-Jun-21 21:00N 34°35' E 135°09'510.9
2018-Jun-21 20:30N 34°36' E 135°02'510.0
2018-Jun-21 20:00N 34°36' E 134°56'510.1
2018-Jun-21 19:30N 34°33' E 134°51'510.3
2018-Jun-21 18:59N 34°31' E 134°45'511.1
2018-Jun-21 18:30N 34°29' E 134°39'611.4
2018-Jun-21 18:00N 34°27' E 134°32'611.5
2018-Jun-21 17:30N 34°25' E 134°26'611.3
2018-Jun-21 17:00N 34°24' E 134°19'610.7
2018-Jun-21 16:28N 34°24' E 134°12'12 0.4
2018-Jun-20 12:11N 34°35' E 134°18'210.5
2018-Jun-20 12:00N 34°36' E 134°20'611.0
2018-Jun-20 11:27N 34°37' E 134°27'510.9
2018-Jun-20 11:00N 34°37' E 134°33'510.5
2018-Jun-20 10:30N 34°38' E 134°40'510.5
2018-Jun-20 10:00N 34°38' E 134°46'510.0
2018-Jun-20 09:30N 34°38' E 134°52'5 9.5
2018-Jun-20 08:57N 34°37' E 134°59'4 9.5
2018-Jun-20 08:30N 34°36' E 135°04'510.1
2018-Jun-20 08:00N 34°37' E 135°10'510.5
2018-Jun-20 07:30N 34°38' E 135°16'1 2.0
2018-Jun-20 06:49N 34°39' E 135°15'0 0.0
2018-Jun-20 06:19N 34°39' E 135°15'0 0.0
2018-Jun-20 05:55N 34°39' E 135°15'0 0.0
2018-Jun-20 05:25N 34°39' E 135°15'0 0.0
2018-Jun-20 04:55N 34°39' E 135°15'0 0.0
2018-Jun-20 04:25N 34°39' E 135°15'1 1.5
2018-Jun-20 04:00N 34°39' E 135°15'3 6.9
2018-Jun-20 03:30N 34°36' E 135°13'5 9.2
2018-Jun-20 03:00N 34°35' E 135°07'611.3
2018-Jun-20 02:30N 34°37' E 135°01'610.8
2018-Jun-20 01:58N 34°35' E 134°54'711.2
2018-Jun-20 01:23N 34°32' E 134°47'511.3
2018-Jun-20 00:59N 34°30' E 134°42'511.3
2018-Jun-20 00:30N 34°28' E 134°36'612.6
2018-Jun-20 00:01N 34°26' E 134°29'612.5
2018-Jun-19 23:30N 34°24' E 134°22'2 0.1
2018-Jun-18 06:55N 34°25' E 134°19'512.0
2018-Jun-18 06:30N 34°27' E 134°25'612.4
2018-Jun-18 05:59N 34°29' E 134°32'612.6
2018-Jun-18 05:30N 34°31' E 134°39'713.2
2018-Jun-18 05:01N 34°33' E 134°46'813.3
2018-Jun-18 04:26N 34°36' E 134°55'612.9
2018-Jun-18 04:00N 34°37' E 135°02'612.7
2018-Jun-18 03:30N 34°36' E 135°09'611.8
2018-Jun-18 03:00N 34°39' E 135°16'1 2.1
2018-Jun-18 02:26N 34°39' E 135°14'0 0.0
2018-Jun-18 01:56N 34°39' E 135°14'0 0.0
2018-Jun-18 01:26N 34°39' E 135°14'0 0.0
2018-Jun-18 00:56N 34°39' E 135°14'0 0.0
2018-Jun-18 00:29N 34°39' E 135°14'0 0.0
2018-Jun-17 23:56N 34°39' E 135°14'0 0.0
2018-Jun-17 23:26N 34°39' E 135°14'0 0.0
2018-Jun-17 22:58N 34°39' E 135°14'1 3.1
2018-Jun-17 22:30N 34°41' E 135°14'1 2.0
2018-Jun-17 21:59N 34°41' E 135°13'0 0.0
2018-Jun-17 21:30N 34°41' E 135°13'0 0.0
2018-Jun-17 20:48N 34°41' E 135°13'0 0.0
2018-Jun-17 20:30N 34°41' E 135°13'0 0.0
2018-Jun-17 20:00N 34°41' E 135°13'0 0.0
2018-Jun-17 19:30N 34°41' E 135°13'0 0.0
2018-Jun-17 18:54N 34°41' E 135°13'0 0.0
2018-Jun-17 18:30N 34°41' E 135°13'0 0.0
2018-Jun-17 18:00N 34°41' E 135°13'0 0.0
2018-Jun-17 17:30N 34°41' E 135°13'0 0.0
2018-Jun-17 17:00N 34°41' E 135°13'0 0.0
2018-Jun-17 16:29N 34°41' E 135°13'0 0.0
2018-Jun-17 15:54N 34°41' E 135°13'0 0.0
2018-Jun-17 15:29N 34°41' E 135°13'0 0.0
2018-Jun-17 15:00N 34°41' E 135°13'0 0.0
2018-Jun-17 14:29N 34°41' E 135°13'0 0.0
2018-Jun-17 13:59N 34°41' E 135°13'0 0.0
2018-Jun-17 13:29N 34°41' E 135°13'0 0.0
2018-Jun-17 12:59N 34°41' E 135°13'0 0.0
2018-Jun-17 12:30N 34°41' E 135°13'0 0.0
2018-Jun-17 12:00N 34°41' E 135°13'0 0.0
2018-Jun-17 11:30N 34°41' E 135°13'0 0.0
2018-Jun-17 10:59N 34°41' E 135°13'0 0.0
2018-Jun-17 10:23N 34°41' E 135°13'0 0.0
2018-Jun-17 09:54N 34°41' E 135°13'0 0.0
2018-Jun-17 09:30N 34°41' E 135°13'0 0.0
2018-Jun-17 08:53N 34°41' E 135°13'0 0.0
2018-Jun-17 08:23N 34°41' E 135°13'0 0.0
2018-Jun-17 07:47N 34°41' E 135°13'0 0.0
2018-Jun-17 07:29N 34°41' E 135°13'0 0.0
2018-Jun-17 06:59N 34°41' E 135°13'0 0.0
2018-Jun-17 06:05N 34°41' E 135°13'0 0.0
2018-Jun-17 05:47N 34°41' E 135°13'0 0.0
2018-Jun-17 05:24N 34°41' E 135°13'0 0.0
2018-Jun-17 04:59N 34°41' E 135°13'0 0.0
2018-Jun-17 04:23N 34°41' E 135°13'0 0.0
2018-Jun-17 03:59N 34°41' E 135°13'0 0.0
2018-Jun-17 03:29N 34°41' E 135°13'0 0.0
2018-Jun-17 02:53N 34°41' E 135°13'0 0.0
2018-Jun-17 02:29N 34°41' E 135°13'0 0.0
2018-Jun-17 01:59N 34°41' E 135°13'0 0.0
2018-Jun-17 01:23N 34°41' E 135°13'0 0.0
2018-Jun-17 00:59N 34°41' E 135°13'0 0.0
2018-Jun-17 00:29N 34°41' E 135°13'0 0.3
2018-Jun-17 00:00N 34°41' E 135°13'4 7.5
2018-Jun-16 23:30N 34°38' E 135°15'611.5
2018-Jun-16 23:00N 34°36' E 135°09'611.4
2018-Jun-16 22:30N 34°36' E 135°02'611.1
2018-Jun-16 21:59N 34°35' E 134°55'712.4
2018-Jun-16 21:26N 34°32' E 134°48'512.3
2018-Jun-16 21:00N 34°30' E 134°42'611.6
2018-Jun-16 20:30N 34°28' E 134°35'611.5
2018-Jun-16 20:00N 34°26' E 134°29'611.6
2018-Jun-16 19:30N 34°24' E 134°22'4 0.1
2018-Jun-15 16:22N 34°25' E 134°17'512.5
2018-Jun-15 15:59N 34°26' E 134°23'613.0
2018-Jun-15 15:30N 34°28' E 134°30'713.2
2018-Jun-15 15:00N 34°31' E 134°37'713.8
2018-Jun-15 14:31N 34°33' E 134°45'815.3
2018-Jun-15 13:58N 34°36' E 134°55'714.5
2018-Jun-15 13:30N 34°37' E 135°03'713.4
2018-Jun-15 13:00N 34°37' E 135°11'4 8.0
2018-Jun-15 12:31N 34°39' E 135°15'0 0.3
2018-Jun-15 11:49N 34°39' E 135°15'0 0.0
2018-Jun-15 11:13N 34°39' E 135°15'0 0.0
2018-Jun-15 10:49N 34°39' E 135°15'0 0.0
2018-Jun-15 10:25N 34°39' E 135°15'0 0.0
2018-Jun-15 10:00N 34°39' E 135°15'1 2.6
2018-Jun-15 09:30N 34°39' E 135°16'3 6.5
2018-Jun-15 09:00N 34°36' E 135°15'0 0.7
2018-Jun-15 08:31N 34°36' E 135°15'0 0.9
2018-Jun-15 08:00N 34°36' E 135°14'3 6.4
2018-Jun-15 07:30N 34°35' E 135°11'713.2
2018-Jun-15 07:00N 34°36' E 135°03'815.2
2018-Jun-15 06:31N 34°35' E 134°54'814.5
2018-Jun-15 05:57N 34°31' E 134°45'613.9
2018-Jun-15 05:30N 34°29' E 134°38'713.7
2018-Jun-15 05:01N 34°27' E 134°30'714.0
2018-Jun-15 04:30N 34°24' E 134°22'  

Dump ship's entire track history